createdAt,value
2018-11-03T00:00:52.925Z,43.03
2018-11-03T00:03:57.100Z,26.17
2018-11-03T00:07:01.585Z,29.57
2018-11-03T00:10:06.563Z,26.67
2018-11-03T00:13:11.072Z,26.33
2018-11-03T00:16:15.534Z,26.37
2018-11-03T00:19:19.864Z,30.50
2018-11-03T00:22:24.203Z,25.63
2018-11-03T00:25:28.549Z,25.97
2018-11-03T00:28:32.868Z,28.93
2018-11-03T00:31:37.371Z,25.90
2018-11-03T00:34:41.683Z,24.83
2018-11-03T00:37:45.952Z,21.70
2018-11-03T00:40:50.607Z,27.23
2018-11-03T00:43:54.850Z,21.90
2018-11-03T00:46:59.262Z,28.50
2018-11-03T00:50:03.661Z,27.80
2018-11-03T00:53:07.892Z,24.03
2018-11-03T00:56:12.619Z,25.57
2018-11-03T00:59:17.083Z,23.80
2018-11-03T01:02:21.393Z,23.73
2018-11-03T01:05:25.735Z,26.33
2018-11-03T01:08:30.082Z,31.07
2018-11-03T01:11:34.453Z,31.30
2018-11-03T01:14:38.712Z,28.30
2018-11-03T01:17:43.011Z,28.20
2018-11-03T01:20:47.199Z,25.10
2018-11-03T01:23:51.794Z,25.57
2018-11-03T01:26:56.627Z,31.87
2018-11-03T01:30:01.009Z,33.43
2018-11-03T01:33:05.178Z,25.37
2018-11-03T01:36:09.089Z,26.63
2018-11-03T01:39:13.158Z,22.80
2018-11-03T01:42:17.606Z,26.77
2018-11-03T01:45:21.689Z,32.20
2018-11-03T01:48:25.630Z,30.63
2018-11-03T01:51:29.562Z,26.80
2018-11-03T01:54:33.447Z,34.43
2018-11-03T01:57:38.187Z,27.10
2018-11-03T02:00:42.119Z,27.97
2018-11-03T02:03:46.005Z,31.47
2018-11-03T02:06:50.076Z,29.30
2018-11-03T02:09:53.970Z,28.53
2018-11-03T02:12:57.871Z,30.23
2018-11-03T02:16:01.834Z,26.20
2018-11-03T02:19:06.053Z,31.80
2018-11-03T02:22:10.050Z,27.20
2018-11-03T02:25:13.948Z,27.53
2018-11-03T02:28:17.950Z,25.63
2018-11-03T02:31:21.904Z,29.03
2018-11-03T02:34:25.807Z,28.83
2018-11-03T02:37:29.712Z,26.80
2018-11-03T02:40:33.587Z,28.67
2018-11-03T02:43:37.533Z,27.83
2018-11-03T02:46:41.527Z,26.43
2018-11-03T02:49:45.547Z,29.43
2018-11-03T02:52:49.451Z,28.10
2018-11-03T02:55:53.411Z,28.47
2018-11-03T02:58:57.446Z,32.20
2018-11-03T03:02:01.346Z,26.40
2018-11-03T03:05:05.959Z,28.30
2018-11-03T03:08:09.891Z,25.07
2018-11-03T03:11:13.832Z,27.40
2018-11-03T03:14:17.789Z,26.90
2018-11-03T03:17:21.721Z,25.43
2018-11-03T03:20:25.620Z,31.87
2018-11-03T03:23:29.547Z,26.40
2018-11-03T03:26:33.480Z,27.50
2018-11-03T03:29:37.505Z,31.60
2018-11-03T03:32:41.963Z,32.17
2018-11-03T03:35:45.862Z,29.20
2018-11-03T03:38:49.794Z,27.33
2018-11-03T03:41:53.685Z,26.87
2018-11-03T03:44:57.598Z,27.80
2018-11-03T03:48:01.632Z,28.87
2018-11-03T03:51:05.563Z,28.77
2018-11-03T03:54:09.467Z,33.40
2018-11-03T03:57:13.357Z,29.53
2018-11-03T04:00:17.294Z,27.47
2018-11-03T04:03:21.162Z,27.83
2018-11-03T04:06:25.070Z,28.67
2018-11-03T04:09:28.970Z,32.93
2018-11-03T04:12:32.824Z,33.60
2018-11-03T04:15:36.697Z,32.77
2018-11-03T04:18:41.117Z,27.00
2018-11-03T04:21:45.062Z,28.63
2018-11-03T04:24:49.745Z,28.13
2018-11-03T04:27:53.728Z,32.13
2018-11-03T04:30:57.681Z,35.37
2018-11-03T04:34:01.631Z,35.33
2018-11-03T04:37:05.644Z,29.40
2018-11-03T04:40:11.388Z,36.10
2018-11-03T04:43:15.272Z,40.23
2018-11-03T04:46:19.213Z,33.70
2018-11-03T04:49:23.144Z,35.33
2018-11-03T04:52:27.147Z,36.43
2018-11-03T04:55:31.065Z,31.77
2018-11-03T04:58:34.960Z,33.40
2018-11-03T05:01:38.859Z,41.47
2018-11-03T05:04:42.740Z,36.67
2018-11-03T05:07:46.694Z,40.73
2018-11-03T05:10:50.685Z,37.70
2018-11-03T05:13:54.554Z,36.10
2018-11-03T05:16:58.466Z,39.47
2018-11-03T05:20:02.382Z,32.20
2018-11-03T05:23:06.318Z,33.20
2018-11-03T05:26:10.192Z,36.57
2018-11-03T05:29:14.144Z,38.50
2018-11-03T05:32:18.085Z,45.77
2018-11-03T05:35:21.933Z,39.87
2018-11-03T05:38:25.976Z,42.33
2018-11-03T05:41:29.944Z,38.27
2018-11-03T05:44:33.858Z,45.27
2018-11-03T05:47:37.802Z,38.40
2018-11-03T05:50:41.735Z,45.33
2018-11-03T05:53:45.651Z,34.80
2018-11-03T05:56:49.610Z,36.73
2018-11-03T05:59:53.526Z,33.40
2018-11-03T06:02:59.338Z,44.23
2018-11-03T06:06:03.218Z,39.67
2018-11-03T06:09:08.638Z,42.67
2018-11-03T06:12:12.520Z,42.03
2018-11-03T06:15:16.417Z,36.17
2018-11-03T06:18:20.290Z,32.10
2018-11-03T06:21:24.212Z,39.07
2018-11-03T06:24:28.225Z,38.53
2018-11-03T06:27:32.192Z,37.10
2018-11-03T06:30:36.519Z,40.63
2018-11-03T06:33:40.425Z,33.63
2018-11-03T06:36:44.337Z,35.50
2018-11-03T06:39:48.252Z,39.00
2018-11-03T06:42:52.165Z,37.00
2018-11-03T06:45:56.069Z,36.03
2018-11-03T06:49:05.095Z,37.47
2018-11-03T06:52:09.003Z,34.90
2018-11-03T06:55:12.935Z,43.30
2018-11-03T06:58:18.029Z,42.23
2018-11-03T07:01:21.899Z,33.10
2018-11-03T07:04:25.806Z,44.67
2018-11-03T07:07:29.695Z,49.03
2018-11-03T07:10:33.615Z,45.53
2018-11-03T07:13:37.504Z,50.27
2018-11-03T07:16:41.534Z,44.03
2018-11-03T07:19:45.469Z,65.50
2018-11-03T07:22:49.490Z,68.73
2018-11-03T07:25:53.463Z,81.80
2018-11-03T07:28:57.445Z,87.50
2018-11-03T07:32:01.440Z,89.77
2018-11-03T07:35:05.493Z,98.00
2018-11-03T07:38:09.427Z,74.67
2018-11-03T07:41:13.387Z,87.00
2018-11-03T07:44:17.288Z,86.83
2018-11-03T07:47:22.186Z,71.73
2018-11-03T07:50:26.089Z,84.33
2018-11-03T07:53:30.142Z,73.03
2018-11-03T07:56:34.074Z,81.93
2018-11-03T07:59:37.976Z,73.80
2018-11-03T08:02:41.894Z,63.37
2018-11-03T08:05:45.787Z,68.47
2018-11-03T08:08:49.852Z,68.70
2018-11-03T08:11:53.777Z,83.70
2018-11-03T08:14:57.859Z,76.40
2018-11-03T08:18:01.762Z,73.30
2018-11-03T08:21:05.710Z,72.70
2018-11-03T08:24:09.635Z,73.93
2018-11-03T08:27:13.543Z,74.20
2018-11-03T08:30:17.423Z,88.73
2018-11-03T08:33:21.460Z,68.67
2018-11-03T08:36:25.514Z,71.13
2018-11-03T08:39:29.544Z,70.07
2018-11-03T08:42:33.605Z,67.00
2018-11-03T08:45:37.560Z,63.03
2018-11-03T08:48:41.563Z,63.93
2018-11-03T08:51:45.448Z,65.83
2018-11-03T08:54:49.458Z,59.80
2018-11-03T08:57:53.357Z,59.10
2018-11-03T09:00:57.633Z,53.97
2018-11-03T09:04:01.550Z,59.47
2018-11-03T09:07:05.682Z,48.93
2018-11-03T09:10:11.883Z,51.40
2018-11-03T09:13:15.842Z,41.67
2018-11-03T09:16:19.762Z,51.47
2018-11-03T09:19:23.747Z,46.40
2018-11-03T09:22:27.774Z,47.93
2018-11-03T09:25:31.726Z,42.70
2018-11-03T09:28:35.602Z,46.73
2018-11-03T09:31:39.618Z,37.43
2018-11-03T09:34:43.628Z,43.33
2018-11-03T09:37:47.620Z,37.30
2018-11-03T09:40:51.518Z,36.57
2018-11-03T09:43:55.413Z,34.17
2018-11-03T09:46:59.348Z,34.37
2018-11-03T09:50:03.433Z,36.03
2018-11-03T09:53:07.372Z,33.90
2018-11-03T09:56:11.241Z,35.97
2018-11-03T09:59:15.176Z,33.17
2018-11-03T10:02:19.135Z,32.53
2018-11-03T10:05:23.225Z,31.20
2018-11-03T10:08:27.113Z,36.23
2018-11-03T10:11:31.036Z,32.33
2018-11-03T10:14:34.959Z,28.87
2018-11-03T10:17:38.870Z,41.27
2018-11-03T10:20:42.784Z,42.63
2018-11-03T10:23:46.670Z,39.23
2018-11-03T10:26:50.684Z,44.60
2018-11-03T10:29:55.197Z,42.53
2018-11-03T10:32:59.379Z,45.70
2018-11-03T10:36:03.782Z,45.63
2018-11-03T10:39:10.057Z,47.70
2018-11-03T10:42:14.461Z,48.00
2018-11-03T10:45:18.878Z,49.30
2018-11-03T10:48:23.140Z,47.53
2018-11-03T10:51:27.064Z,49.70
2018-11-03T10:54:32.719Z,45.13
2018-11-03T10:57:37.182Z,47.57
2018-11-03T11:00:46.702Z,47.50
2018-11-03T11:03:55.810Z,46.37
2018-11-03T11:07:05.201Z,42.50
2018-11-03T11:10:14.070Z,51.33
2018-11-03T11:13:19.704Z,45.70
2018-11-03T11:16:23.854Z,46.07
2018-11-03T11:19:27.649Z,46.00
2018-11-03T11:22:31.855Z,49.53
2018-11-03T11:25:36.267Z,40.50
2018-11-03T11:28:40.498Z,42.23
2018-11-03T11:31:44.835Z,45.13
2018-11-03T11:34:49.149Z,42.80
2018-11-03T11:37:53.638Z,38.73
2018-11-03T11:40:57.775Z,42.40
2018-11-03T11:44:02.144Z,49.77
2018-11-03T11:47:06.366Z,45.60
2018-11-03T11:50:10.720Z,42.67
2018-11-03T11:53:15.078Z,46.03
2018-11-03T11:56:19.565Z,44.20
2018-11-03T11:59:23.859Z,39.53
2018-11-03T12:02:28.243Z,46.60
2018-11-03T12:05:32.500Z,39.83
2018-11-03T12:08:36.854Z,43.20
2018-11-03T12:11:41.192Z,56.23
2018-11-03T12:14:45.772Z,34.37
2018-11-03T12:17:50.227Z,40.97
2018-11-03T12:20:54.546Z,37.03
2018-11-03T12:23:58.846Z,42.00
2018-11-03T12:27:03.133Z,34.40
2018-11-03T12:30:09.101Z,40.50
2018-11-03T12:33:14.265Z,37.60
2018-11-03T12:36:18.580Z,41.07
2018-11-03T12:39:22.933Z,42.47
2018-11-03T12:42:27.588Z,39.13
2018-11-03T12:45:31.804Z,44.50
2018-11-03T12:48:35.971Z,47.10
2018-11-03T12:51:40.297Z,41.70
2018-11-03T12:54:44.755Z,41.00
2018-11-03T12:57:49.283Z,39.27
2018-11-03T13:00:53.598Z,36.47
2018-11-03T13:03:57.892Z,34.83
2018-11-03T13:07:02.292Z,42.67
2018-11-03T13:10:07.635Z,36.93
2018-11-03T13:13:12.124Z,34.20
2018-11-03T13:16:16.419Z,34.77
2018-11-03T13:19:21.636Z,41.63
2018-11-03T13:22:26.112Z,38.17
2018-11-03T13:25:30.718Z,39.43
2018-11-03T13:28:36.729Z,38.80
2018-11-03T13:31:41.185Z,40.07
2018-11-03T13:34:45.681Z,38.10
2018-11-03T13:37:49.987Z,44.13
2018-11-03T13:40:54.521Z,38.90
2018-11-03T13:43:58.785Z,36.07
2018-11-03T13:47:03.153Z,38.87
2018-11-03T13:50:15.140Z,42.93
2018-11-03T13:53:19.557Z,36.87
2018-11-03T13:56:23.739Z,34.80
2018-11-03T13:59:28.070Z,37.03
2018-11-03T14:02:32.407Z,40.77
2018-11-03T14:05:36.314Z,43.73
2018-11-03T14:08:40.178Z,41.10
2018-11-03T14:11:44.164Z,43.43
2018-11-03T14:14:48.051Z,35.40
2018-11-03T14:17:51.985Z,36.93
2018-11-03T14:20:55.887Z,40.20
2018-11-03T14:24:00.048Z,41.23
2018-11-03T14:27:04.014Z,41.33
2018-11-03T14:30:09.682Z,45.07
2018-11-03T14:33:13.646Z,53.03
2018-11-03T14:36:17.633Z,54.00
2018-11-03T14:39:21.584Z,45.40
2018-11-03T14:42:25.511Z,51.13
2018-11-03T14:45:29.473Z,55.33
2018-11-03T14:48:33.434Z,56.33
2018-11-03T14:51:37.437Z,50.07
2018-11-03T14:54:41.900Z,58.00
2018-11-03T14:57:46.231Z,54.80
2018-11-03T15:00:50.563Z,50.40
2018-11-03T15:03:55.495Z,50.17
2018-11-03T15:06:59.802Z,55.50
2018-11-03T15:10:03.956Z,52.90
2018-11-03T15:13:08.245Z,55.70
2018-11-03T15:16:12.584Z,56.50
2018-11-03T15:19:16.869Z,50.23
2018-11-03T15:22:21.189Z,48.57
2018-11-03T15:25:25.591Z,49.80
2018-11-03T15:28:29.898Z,47.57
2018-11-03T15:31:34.158Z,93.10
2018-11-03T15:34:38.316Z,69.23
2018-11-03T15:37:42.520Z,57.77
2018-11-03T15:40:46.878Z,59.37
2018-11-03T15:43:51.186Z,48.93
2018-11-03T15:46:55.435Z,57.73
2018-11-03T15:49:59.788Z,54.07
2018-11-03T15:53:04.057Z,48.87
2018-11-03T15:56:08.405Z,50.47
2018-11-03T15:59:12.538Z,47.73
2018-11-03T16:02:16.949Z,44.10
2018-11-03T16:05:21.087Z,37.40
2018-11-03T16:08:25.368Z,49.27
2018-11-03T16:11:29.837Z,44.97
2018-11-03T16:14:34.225Z,45.13
2018-11-03T16:17:39.028Z,44.17
2018-11-03T16:20:43.172Z,41.53
2018-11-03T16:23:47.560Z,39.63
2018-11-03T16:26:51.955Z,42.20
2018-11-03T16:29:56.322Z,43.30
2018-11-03T16:33:00.513Z,45.97
2018-11-03T16:36:05.012Z,46.70
2018-11-03T16:39:10.478Z,39.70
2018-11-03T16:42:14.868Z,46.63
2018-11-03T16:45:18.996Z,51.87
2018-11-03T16:48:23.310Z,50.63
2018-11-03T16:51:27.468Z,54.20
2018-11-03T16:54:32.028Z,54.97
2018-11-03T16:57:36.954Z,50.27
2018-11-03T17:00:41.450Z,53.07
2018-11-03T17:03:45.750Z,47.40
2018-11-03T17:06:49.956Z,44.33
2018-11-03T17:09:54.549Z,48.87
2018-11-03T17:12:58.936Z,52.53
2018-11-03T17:16:03.219Z,44.47
2018-11-03T17:19:07.286Z,47.90
2018-11-03T17:22:11.526Z,50.70
2018-11-03T17:25:15.982Z,45.13
2018-11-03T17:28:20.165Z,51.13
2018-11-03T17:31:24.488Z,49.43
2018-11-03T17:34:29.155Z,50.53
2018-11-03T17:37:33.526Z,50.33
2018-11-03T17:40:37.982Z,55.53
2018-11-03T17:43:42.341Z,54.73
2018-11-03T17:46:46.418Z,50.13
2018-11-03T17:49:50.753Z,51.13
2018-11-03T17:52:55.283Z,51.03
2018-11-03T17:55:59.295Z,46.57
2018-11-03T17:59:03.588Z,54.27
2018-11-03T18:02:08.851Z,55.07
2018-11-03T18:05:13.228Z,54.30
2018-11-03T18:08:17.436Z,54.07
2018-11-03T18:11:22.123Z,51.73
2018-11-03T18:14:26.202Z,51.03
2018-11-03T18:17:30.789Z,57.50
2018-11-03T18:20:35.338Z,60.63
2018-11-03T18:23:40.289Z,51.10
2018-11-03T18:26:44.618Z,55.37
2018-11-03T18:29:49.185Z,55.90
2018-11-03T18:32:53.470Z,60.43
2018-11-03T18:35:57.847Z,60.77
2018-11-03T18:39:02.171Z,60.27
2018-11-03T18:42:06.481Z,63.73
2018-11-03T18:45:10.736Z,56.43
2018-11-03T18:48:15.151Z,67.07
2018-11-03T18:51:19.700Z,56.33
2018-11-03T18:54:23.850Z,55.63
2018-11-03T18:57:28.170Z,48.87
2018-11-03T19:00:32.618Z,78.00
2018-11-03T19:03:36.735Z,52.60
2018-11-03T19:06:41.043Z,62.70
2018-11-03T19:09:45.273Z,58.17
2018-11-03T19:12:49.732Z,67.20
2018-11-03T19:15:53.729Z,62.57
2018-11-03T19:18:58.169Z,58.50
2018-11-03T19:22:02.418Z,50.10
2018-11-03T19:25:08.669Z,56.27
2018-11-03T19:28:12.767Z,54.77
2018-11-03T19:31:16.983Z,59.10
2018-11-03T19:34:21.299Z,60.20
2018-11-03T19:37:25.531Z,53.23
2018-11-03T19:40:29.715Z,56.90
2018-11-03T19:43:33.962Z,50.23
2018-11-03T19:46:38.291Z,50.63
2018-11-03T19:49:42.477Z,56.00
2018-11-03T19:52:46.772Z,57.73
2018-11-03T19:55:51.073Z,60.30
2018-11-03T19:58:55.691Z,56.30
2018-11-03T20:01:59.934Z,62.33
2018-11-03T20:05:04.335Z,52.67
2018-11-03T20:08:08.725Z,54.43
2018-11-03T20:11:13.030Z,46.07
2018-11-03T20:14:17.529Z,48.23
2018-11-03T20:17:21.813Z,41.83
2018-11-03T20:20:26.130Z,43.53
2018-11-03T20:23:30.527Z,39.97
2018-11-03T20:26:35.013Z,49.27
2018-11-03T20:29:39.294Z,43.03
2018-11-03T20:32:44.052Z,42.73
2018-11-03T20:35:48.243Z,45.50
2018-11-03T20:38:52.698Z,38.00
2018-11-03T20:41:57.145Z,40.37
2018-11-03T20:45:01.357Z,45.63
2018-11-03T20:48:06.309Z,42.25
2018-11-03T20:51:11.672Z,46.73
2018-11-03T20:54:16.021Z,51.77
2018-11-03T20:57:20.386Z,43.60
2018-11-03T21:00:24.645Z,45.17
2018-11-03T21:03:28.965Z,42.33
2018-11-03T21:06:33.297Z,49.73
2018-11-03T21:09:38.427Z,43.37
2018-11-03T21:12:42.414Z,43.00
2018-11-03T21:15:47.016Z,45.90
2018-11-03T21:18:51.496Z,41.90
2018-11-03T21:21:55.985Z,44.57
2018-11-03T21:25:00.418Z,41.60
2018-11-03T21:28:04.782Z,45.30
2018-11-03T21:31:09.722Z,41.90
2018-11-03T21:34:14.279Z,38.90
2018-11-03T21:37:18.715Z,44.70
2018-11-03T21:40:23.332Z,42.37
2018-11-03T21:43:27.650Z,44.17
2018-11-03T21:46:32.153Z,42.03
2018-11-03T21:49:36.393Z,39.13
2018-11-03T21:52:40.714Z,43.17
2018-11-03T21:55:45.155Z,39.40
2018-11-03T21:58:49.692Z,44.20
2018-11-03T22:01:54.099Z,49.57
2018-11-03T22:04:58.428Z,80.23
2018-11-03T22:08:02.774Z,55.63
2018-11-03T22:11:07.068Z,43.80
2018-11-03T22:14:11.395Z,45.83
2018-11-03T22:17:15.703Z,40.97
2018-11-03T22:20:20.070Z,44.00
2018-11-03T22:23:23.923Z,41.60
2018-11-03T22:26:28.140Z,39.17
2018-11-03T22:29:32.625Z,46.07
2018-11-03T22:32:36.778Z,45.13
2018-11-03T22:35:41.265Z,38.87
2018-11-03T22:38:45.138Z,47.03
2018-11-03T22:41:49.026Z,40.37
2018-11-03T22:44:53.577Z,41.93
2018-11-03T22:47:57.670Z,45.27
2018-11-03T22:51:01.797Z,41.90
2018-11-03T22:54:06.175Z,37.43
2018-11-03T22:57:10.409Z,41.50
2018-11-03T23:00:15.019Z,35.20
2018-11-03T23:03:18.947Z,40.63
2018-11-03T23:06:23.345Z,42.00
2018-11-03T23:09:27.832Z,36.57
2018-11-03T23:12:32.358Z,38.07
2018-11-03T23:15:36.744Z,34.50
2018-11-03T23:18:41.038Z,34.57
2018-11-03T23:21:45.526Z,37.00
2018-11-03T23:24:49.875Z,44.13
2018-11-03T23:27:54.328Z,37.80
2018-11-03T23:30:58.762Z,41.03
2018-11-03T23:34:03.182Z,41.80
2018-11-03T23:37:07.460Z,44.20
2018-11-03T23:40:11.962Z,42.80
2018-11-03T23:43:16.251Z,43.77
2018-11-03T23:46:20.594Z,40.10
2018-11-03T23:49:25.059Z,36.77
2018-11-03T23:52:33.727Z,36.83
2018-11-03T23:55:38.137Z,39.30
2018-11-03T23:58:42.395Z,35.63
